createdAt,value
2018-01-10T00:00:48.230Z,88.67
2018-01-10T00:03:15.250Z,83.17
2018-01-10T00:05:42.022Z,88.10
2018-01-10T00:08:08.825Z,92.87
2018-01-10T00:10:35.810Z,93.07
2018-01-10T00:13:03.939Z,82.93
2018-01-10T00:15:30.768Z,90.50
2018-01-10T00:17:57.550Z,86.27
2018-01-10T00:20:24.324Z,81.57
2018-01-10T00:22:51.143Z,79.67
2018-01-10T00:25:17.978Z,87.87
2018-01-10T00:27:44.813Z,82.00
2018-01-10T00:30:12.170Z,90.20
2018-01-10T00:32:38.970Z,89.80
2018-01-10T00:35:05.880Z,90.80
2018-01-10T00:37:32.708Z,87.63
2018-01-10T00:39:59.567Z,96.57
2018-01-10T00:42:26.409Z,83.33
2018-01-10T00:44:54.658Z,80.97
2018-01-10T00:47:22.089Z,86.03
2018-01-10T00:49:48.923Z,84.70
2018-01-10T00:52:15.832Z,81.20
2018-01-10T00:54:42.602Z,81.87
2018-01-10T00:57:09.655Z,85.00
2018-01-10T00:59:36.435Z,76.73
2018-01-10T01:02:03.254Z,91.23
2018-01-10T01:04:30.080Z,81.57
2018-01-10T01:06:56.849Z,84.30
2018-01-10T01:09:23.740Z,84.20
2018-01-10T01:11:50.510Z,82.90
2018-01-10T01:14:17.505Z,74.17
2018-01-10T01:16:44.887Z,80.43
2018-01-10T01:19:11.724Z,77.10
2018-01-10T01:21:38.474Z,76.13
2018-01-10T01:24:05.530Z,75.90
2018-01-10T01:26:32.341Z,80.97
2018-01-10T01:28:59.181Z,82.23
2018-01-10T01:31:25.996Z,84.87
2018-01-10T01:33:52.809Z,84.67
2018-01-10T01:36:19.666Z,84.13
2018-01-10T01:38:46.477Z,78.57
2018-01-10T01:41:13.255Z,72.80
2018-01-10T01:43:40.074Z,91.23
2018-01-10T01:46:06.937Z,81.40
2018-01-10T01:48:33.829Z,75.77
2018-01-10T01:51:00.607Z,81.10
2018-01-10T01:53:27.398Z,81.93
2018-01-10T01:55:54.218Z,79.00
2018-01-10T01:58:21.082Z,75.53
2018-01-10T02:00:47.897Z,73.27
2018-01-10T02:03:14.706Z,81.40
2018-01-10T02:05:41.515Z,85.03
2018-01-10T02:08:08.330Z,79.40
2018-01-10T02:10:35.244Z,71.63
2018-01-10T02:13:02.023Z,81.97
2018-01-10T02:15:28.889Z,88.17
2018-01-10T02:17:55.728Z,80.57
2018-01-10T02:20:22.464Z,80.43
2018-01-10T02:22:49.327Z,82.50
2018-01-10T02:25:16.146Z,84.00
2018-01-10T02:27:42.974Z,78.03
2018-01-10T02:30:09.768Z,80.00
2018-01-10T02:32:36.576Z,77.87
2018-01-10T02:35:03.394Z,76.23
2018-01-10T02:37:30.311Z,81.03
2018-01-10T02:39:57.107Z,84.87
2018-01-10T02:42:30.059Z,84.07
2018-01-10T02:44:56.937Z,76.77
2018-01-10T02:47:23.766Z,74.20
2018-01-10T02:49:50.583Z,71.97
2018-01-10T02:52:17.529Z,74.27
2018-01-10T02:54:44.306Z,80.50
2018-01-10T02:57:11.087Z,84.77
2018-01-10T02:59:37.895Z,83.90
2018-01-10T03:02:04.734Z,81.73
2018-01-10T03:04:31.514Z,75.17
2018-01-10T03:06:58.322Z,82.50
2018-01-10T03:09:25.200Z,90.40
2018-01-10T03:11:51.975Z,79.60
2018-01-10T03:14:18.710Z,90.87
2018-01-10T03:16:45.662Z,82.97
2018-01-10T03:19:12.570Z,75.03
2018-01-10T03:21:39.405Z,69.07
2018-01-10T03:24:06.222Z,77.07
2018-01-10T03:26:33.070Z,98.83
2018-01-10T03:28:59.847Z,79.27
2018-01-10T03:31:26.717Z,77.80
2018-01-10T03:33:53.522Z,84.97
2018-01-10T03:36:20.342Z,81.70
2018-01-10T03:38:47.328Z,73.00
2018-01-10T03:41:14.223Z,77.07
2018-01-10T03:43:41.036Z,73.80
2018-01-10T03:46:07.994Z,69.50
2018-01-10T03:48:34.806Z,80.07
2018-01-10T03:51:01.610Z,69.37
2018-01-10T03:53:28.389Z,78.53
2018-01-10T03:55:55.181Z,82.53
2018-01-10T03:58:22.014Z,97.10
2018-01-10T04:00:48.838Z,90.47
2018-01-10T04:03:15.712Z,85.40
2018-01-10T04:05:42.525Z,76.10
2018-01-10T04:08:09.334Z,77.93
2018-01-10T04:10:36.154Z,70.67
2018-01-10T04:13:02.983Z,67.87
2018-01-10T04:15:29.790Z,67.17
2018-01-10T04:17:56.570Z,58.90
2018-01-10T04:20:23.363Z,64.87
2018-01-10T04:22:50.362Z,63.37
2018-01-10T04:25:17.222Z,72.17
2018-01-10T04:27:44.034Z,93.97
2018-01-10T04:30:10.852Z,67.27
2018-01-10T04:32:37.697Z,75.97
2018-01-10T04:35:04.706Z,77.33
2018-01-10T04:37:31.522Z,73.20
2018-01-10T04:39:58.329Z,65.57
2018-01-10T04:42:25.144Z,71.13
2018-01-10T04:44:51.933Z,65.53
2018-01-10T04:47:18.761Z,71.30
2018-01-10T04:49:45.558Z,66.20
2018-01-10T04:52:12.346Z,59.97
2018-01-10T04:54:39.142Z,60.03
2018-01-10T04:57:05.962Z,63.47
2018-01-10T04:59:32.994Z,61.83
2018-01-10T05:01:59.771Z,54.20
2018-01-10T05:04:26.655Z,56.50
2018-01-10T05:06:53.755Z,50.00
2018-01-10T05:09:20.561Z,52.63
2018-01-10T05:11:47.408Z,65.40
2018-01-10T05:14:14.252Z,61.07
2018-01-10T05:16:41.068Z,57.40
2018-01-10T05:19:07.838Z,71.57
2018-01-10T05:21:34.806Z,61.77
2018-01-10T05:24:01.621Z,62.83
2018-01-10T05:26:28.590Z,66.23
2018-01-10T05:28:55.529Z,56.40
2018-01-10T05:31:22.302Z,60.97
2018-01-10T05:33:49.106Z,65.13
2018-01-10T05:36:15.891Z,52.10
2018-01-10T05:38:42.712Z,56.43
2018-01-10T05:41:09.670Z,61.33
2018-01-10T05:43:36.460Z,81.63
2018-01-10T05:46:03.273Z,77.20
2018-01-10T05:48:30.085Z,64.50
2018-01-10T05:50:56.881Z,65.17
2018-01-10T05:53:23.669Z,58.23
2018-01-10T05:55:50.544Z,65.47
2018-01-10T05:58:17.474Z,65.90
2018-01-10T06:00:44.261Z,69.67
2018-01-10T06:03:11.281Z,64.20
2018-01-10T06:05:38.066Z,60.00
2018-01-10T06:08:05.049Z,67.03
2018-01-10T06:10:31.880Z,69.77
2018-01-10T06:12:58.758Z,118.10
2018-01-10T06:15:25.642Z,70.47
2018-01-10T06:17:52.486Z,63.57
2018-01-10T06:20:19.317Z,72.53
2018-01-10T06:22:46.405Z,73.37
2018-01-10T06:25:13.224Z,88.83
2018-01-10T06:27:39.998Z,118.90
2018-01-10T06:30:06.970Z,96.33
2018-01-10T06:32:33.748Z,85.73
2018-01-10T06:35:00.732Z,86.67
2018-01-10T06:37:27.588Z,66.90
2018-01-10T06:39:54.374Z,69.77
2018-01-10T06:42:21.362Z,74.80
2018-01-10T06:44:48.150Z,75.47
2018-01-10T06:47:14.966Z,72.97
2018-01-10T06:49:42.015Z,62.63
2018-01-10T06:52:08.923Z,73.47
2018-01-10T06:54:35.690Z,69.03
2018-01-10T06:57:02.738Z,61.27
2018-01-10T06:59:29.567Z,65.43
2018-01-10T07:01:56.366Z,51.97
2018-01-10T07:04:24.342Z,70.17
2018-01-10T07:06:51.130Z,98.20
2018-01-10T07:09:18.390Z,60.03
2018-01-10T07:11:45.205Z,69.40
2018-01-10T07:14:12.088Z,66.83
2018-01-10T07:16:38.995Z,74.40
2018-01-10T07:19:05.978Z,56.30
2018-01-10T07:21:33.152Z,55.80
2018-01-10T07:24:00.177Z,68.23
2018-01-10T07:26:27.010Z,61.27
2018-01-10T07:28:53.831Z,58.87
2018-01-10T07:31:20.644Z,53.90
2018-01-10T07:33:47.446Z,63.60
2018-01-10T07:36:14.231Z,57.10
2018-01-10T07:38:41.112Z,70.87
2018-01-10T07:41:07.938Z,61.70
2018-01-10T07:43:34.724Z,65.47
2018-01-10T07:46:01.546Z,60.70
2018-01-10T07:48:28.398Z,67.33
2018-01-10T07:50:55.840Z,67.43
2018-01-10T07:53:22.750Z,112.17
2018-01-10T07:55:49.594Z,70.17
2018-01-10T07:58:16.424Z,55.60
2018-01-10T08:00:43.266Z,73.13
2018-01-10T08:03:10.102Z,55.57
2018-01-10T08:05:37.010Z,58.73
2018-01-10T08:08:03.793Z,70.00
2018-01-10T08:10:30.770Z,81.20
2018-01-10T08:12:57.559Z,69.30
2018-01-10T08:15:24.414Z,61.53
2018-01-10T08:17:51.234Z,90.03
2018-01-10T08:20:18.042Z,77.43
2018-01-10T08:22:44.840Z,90.77
2018-01-10T08:25:11.892Z,86.07
2018-01-10T08:27:38.682Z,127.47
2018-01-10T08:30:05.962Z,212.67
2018-01-10T08:32:32.784Z,125.20
2018-01-10T08:34:59.623Z,79.20
2018-01-10T08:37:26.410Z,75.77
2018-01-10T08:39:53.195Z,90.73
2018-01-10T08:42:20.531Z,70.17
2018-01-10T08:44:47.366Z,69.70
2018-01-10T08:47:14.160Z,64.73
2018-01-10T08:49:41.150Z,67.50
2018-01-10T08:52:07.934Z,51.30
2018-01-10T08:54:35.138Z,57.93
2018-01-10T08:57:01.934Z,90.83
2018-01-10T08:59:28.728Z,80.37
2018-01-10T09:01:55.539Z,61.87
2018-01-10T09:04:22.485Z,67.87
2018-01-10T09:06:49.378Z,73.00
2018-01-10T09:09:16.292Z,79.37
2018-01-10T09:11:43.122Z,84.80
2018-01-10T09:14:10.093Z,80.63
2018-01-10T09:16:36.909Z,79.30
2018-01-10T09:19:03.896Z,77.93
2018-01-10T09:21:30.707Z,79.63
2018-01-10T09:23:57.457Z,80.53
2018-01-10T09:26:24.229Z,113.37
2018-01-10T09:28:51.139Z,79.37
2018-01-10T09:31:18.106Z,74.73
2018-01-10T09:33:44.993Z,72.37
2018-01-10T09:36:11.775Z,65.33
2018-01-10T09:38:38.558Z,76.27
2018-01-10T09:41:05.398Z,72.00
2018-01-10T09:43:32.239Z,76.53
2018-01-10T09:45:59.334Z,88.40
2018-01-10T09:48:26.150Z,92.00
2018-01-10T09:50:52.985Z,101.57
2018-01-10T09:53:19.830Z,82.50
2018-01-10T09:55:46.855Z,72.13
2018-01-10T09:58:14.268Z,75.87
2018-01-10T10:00:41.087Z,68.30
2018-01-10T10:03:07.920Z,71.00
2018-01-10T10:05:34.854Z,72.23
2018-01-10T10:08:01.790Z,66.07
2018-01-10T10:10:29.358Z,71.03
2018-01-10T10:12:56.236Z,78.27
2018-01-10T10:15:23.061Z,68.27
2018-01-10T10:17:49.903Z,67.33
2018-01-10T10:20:16.724Z,72.10
2018-01-10T10:22:43.531Z,73.43
2018-01-10T10:25:10.466Z,79.07
2018-01-10T10:27:37.327Z,69.73
2018-01-10T10:30:04.155Z,73.47
2018-01-10T10:32:31.054Z,70.33
2018-01-10T10:34:57.890Z,77.10
2018-01-10T10:37:24.694Z,72.53
2018-01-10T10:39:51.596Z,78.47
2018-01-10T10:42:18.483Z,66.33
2018-01-10T10:44:45.381Z,78.90
2018-01-10T10:47:12.172Z,77.77
2018-01-10T10:49:38.958Z,90.93
2018-01-10T10:52:05.778Z,85.03
2018-01-10T10:54:32.599Z,92.77
2018-01-10T10:56:59.469Z,88.40
2018-01-10T10:59:26.282Z,78.43
2018-01-10T11:01:53.203Z,72.13
2018-01-10T11:04:20.042Z,79.77
2018-01-10T11:06:46.893Z,79.37
2018-01-10T11:09:13.682Z,77.63
2018-01-10T11:11:40.681Z,77.30
2018-01-10T11:14:07.475Z,82.77
2018-01-10T11:16:34.261Z,76.93
2018-01-10T11:19:01.087Z,86.40
2018-01-10T11:21:27.910Z,78.33
2018-01-10T11:23:54.902Z,84.43
2018-01-10T11:26:21.786Z,75.47
2018-01-10T11:28:48.593Z,71.77
2018-01-10T11:31:15.453Z,70.80
2018-01-10T11:33:42.460Z,70.50
2018-01-10T11:36:09.259Z,61.87
2018-01-10T11:38:36.091Z,63.27
2018-01-10T11:41:02.930Z,65.37
2018-01-10T11:43:29.777Z,79.37
2018-01-10T11:45:56.585Z,64.90
2018-01-10T11:48:23.362Z,55.13
2018-01-10T11:50:50.144Z,55.50
2018-01-10T11:53:17.029Z,59.27
2018-01-10T11:55:43.859Z,57.07
2018-01-10T11:58:10.592Z,56.17
2018-01-10T12:00:37.746Z,55.20
2018-01-10T12:03:04.597Z,58.03
2018-01-10T12:05:31.491Z,56.90
2018-01-10T12:07:58.487Z,53.83
2018-01-10T12:10:25.962Z,74.30
2018-01-10T12:12:52.771Z,83.83
2018-01-10T12:15:20.246Z,65.37
2018-01-10T12:17:47.400Z,63.47
2018-01-10T12:20:14.313Z,62.40
2018-01-10T12:22:41.135Z,76.70
2018-01-10T12:25:08.170Z,70.77
2018-01-10T12:27:35.038Z,82.57
2018-01-10T12:30:01.962Z,92.80
2018-01-10T12:32:29.090Z,92.57
2018-01-10T12:34:55.913Z,102.00
2018-01-10T12:37:22.729Z,69.37
2018-01-10T12:39:49.525Z,65.43
2018-01-10T12:42:16.554Z,73.90
2018-01-10T12:44:43.421Z,71.47
2018-01-10T12:47:10.210Z,75.10
2018-01-10T12:49:37.066Z,79.27
2018-01-10T12:52:03.842Z,80.40
2018-01-10T12:54:32.322Z,86.37
2018-01-10T12:56:59.359Z,120.00
2018-01-10T12:59:26.181Z,166.60
2018-01-10T13:01:52.979Z,171.43
2018-01-10T13:04:19.988Z,133.40
2018-01-10T13:06:46.857Z,146.40
2018-01-10T13:09:13.650Z,94.83
2018-01-10T13:11:40.429Z,134.00
2018-01-10T13:14:07.248Z,120.03
2018-01-10T13:16:34.962Z,96.40
2018-01-10T13:19:01.876Z,94.47
2018-01-10T13:21:28.735Z,95.87
2018-01-10T13:23:55.610Z,95.50
2018-01-10T13:26:22.913Z,95.87
2018-01-10T13:28:49.818Z,103.77
2018-01-10T13:31:16.690Z,113.63
2018-01-10T13:33:43.452Z,124.57
2018-01-10T13:36:10.395Z,112.13
2018-01-10T13:38:37.335Z,110.93
2018-01-10T13:41:04.292Z,91.40
2018-01-10T13:43:31.072Z,82.67
2018-01-10T13:45:57.875Z,79.57
2018-01-10T13:48:24.851Z,65.50
2018-01-10T13:50:51.954Z,65.23
2018-01-10T13:53:18.760Z,70.80
2018-01-10T13:55:45.754Z,68.60
2018-01-10T13:58:12.570Z,65.87
2018-01-10T14:00:39.561Z,73.17
2018-01-10T14:03:06.344Z,70.67
2018-01-10T14:05:33.214Z,60.37
2018-01-10T14:08:00.042Z,47.40
2018-01-10T14:10:27.339Z,50.87
2018-01-10T14:12:54.236Z,80.93
2018-01-10T14:15:20.982Z,69.40
2018-01-10T14:17:47.799Z,76.37
2018-01-10T14:20:14.811Z,76.37
2018-01-10T14:22:41.774Z,78.17
2018-01-10T14:25:08.829Z,76.60
2018-01-10T14:27:35.633Z,120.80
2018-01-10T14:30:03.479Z,78.90
2018-01-10T14:32:30.258Z,92.13
2018-01-10T14:34:57.051Z,78.73
2018-01-10T14:37:24.038Z,83.30
2018-01-10T14:39:50.964Z,73.90
2018-01-10T14:42:17.999Z,81.83
2018-01-10T14:44:45.740Z,86.33
2018-01-10T14:47:12.550Z,95.43
2018-01-10T14:49:39.467Z,87.30
2018-01-10T14:52:06.299Z,93.17
2018-01-10T14:54:33.142Z,98.30
2018-01-10T14:56:59.949Z,90.07
2018-01-10T14:59:26.870Z,95.50
2018-01-10T15:01:53.675Z,98.83
2018-01-10T15:04:20.495Z,111.40
2018-01-10T15:06:47.344Z,103.07
2018-01-10T15:09:14.283Z,98.93
2018-01-10T15:11:41.111Z,103.73
2018-01-10T15:14:07.918Z,100.93
2018-01-10T15:16:34.747Z,114.47
2018-01-10T15:19:01.860Z,110.67
2018-01-10T15:21:28.647Z,95.63
2018-01-10T15:23:55.703Z,102.50
2018-01-10T15:26:22.534Z,104.50
2018-01-10T15:28:49.414Z,112.90
2018-01-10T15:31:16.482Z,98.00
2018-01-10T15:33:43.943Z,112.10
2018-01-10T15:36:10.782Z,109.83
2018-01-10T15:38:37.863Z,107.63
2018-01-10T15:41:04.857Z,102.27
2018-01-10T15:43:31.697Z,109.87
2018-01-10T15:45:58.882Z,104.83
2018-01-10T15:48:25.782Z,89.47
2018-01-10T15:50:52.559Z,87.07
2018-01-10T15:53:19.603Z,96.33
2018-01-10T15:55:46.802Z,91.73
2018-01-10T15:58:13.629Z,95.73
2018-01-10T16:00:41.080Z,84.10
2018-01-10T16:03:07.950Z,94.40
2018-01-10T16:05:34.739Z,90.53
2018-01-10T16:08:01.687Z,87.97
2018-01-10T16:10:28.505Z,96.57
2018-01-10T16:12:55.304Z,94.93
2018-01-10T16:15:22.180Z,99.00
2018-01-10T16:17:49.343Z,102.83
2018-01-10T16:20:16.264Z,101.70
2018-01-10T16:22:43.174Z,105.23
2018-01-10T16:25:10.079Z,113.40
2018-01-10T16:27:36.894Z,119.47
2018-01-10T16:30:03.864Z,106.23
2018-01-10T16:32:30.953Z,106.00
2018-01-10T16:34:57.813Z,110.30
2018-01-10T16:37:25.012Z,100.43
2018-01-10T16:39:51.870Z,103.83
2018-01-10T16:42:18.804Z,102.10
2018-01-10T16:44:46.077Z,110.83
2018-01-10T16:47:12.848Z,101.37
2018-01-10T16:49:39.678Z,97.80
2018-01-10T16:52:06.483Z,103.60
2018-01-10T16:54:33.314Z,86.20
2018-01-10T16:57:00.307Z,79.10
2018-01-10T16:59:27.118Z,80.33
2018-01-10T17:01:54.018Z,72.07
2018-01-10T17:04:21.106Z,83.07
2018-01-10T17:06:47.959Z,59.63
2018-01-10T17:09:14.751Z,69.03
2018-01-10T17:11:41.543Z,58.40
2018-01-10T17:14:08.972Z,60.70
2018-01-10T17:16:36.546Z,55.03
2018-01-10T17:19:04.098Z,49.80
2018-01-10T17:21:30.913Z,48.70
2018-01-10T17:23:57.760Z,64.30
2018-01-10T17:26:24.834Z,54.63
2018-01-10T17:28:51.655Z,54.20
2018-01-10T17:31:18.454Z,50.83
2018-01-10T17:33:45.316Z,52.30
2018-01-10T17:36:12.148Z,51.70
2018-01-10T17:38:39.154Z,54.03
2018-01-10T17:41:06.017Z,30.30
2018-01-10T17:43:32.833Z,28.83
2018-01-10T17:46:00.598Z,24.13
2018-01-10T17:48:27.702Z,14.03
2018-01-10T17:50:54.493Z,16.50
2018-01-10T17:53:21.308Z,13.33
2018-01-10T17:55:48.237Z,16.80
2018-01-10T17:58:15.007Z,12.27
2018-01-10T18:00:41.827Z,12.70
2018-01-10T18:03:08.722Z,12.60
2018-01-10T18:05:35.578Z,15.80
2018-01-10T18:08:02.383Z,17.17
2018-01-10T18:10:29.219Z,20.00
2018-01-10T18:12:56.019Z,17.50
2018-01-10T18:15:22.793Z,17.20
2018-01-10T18:17:49.589Z,19.43
2018-01-10T18:20:16.429Z,19.47
2018-01-10T18:22:43.326Z,20.33
2018-01-10T18:25:10.195Z,20.77
2018-01-10T18:27:37.087Z,21.00
2018-01-10T18:30:03.925Z,22.53
2018-01-10T18:32:30.736Z,19.10
2018-01-10T18:34:57.568Z,21.13
2018-01-10T18:37:24.489Z,20.07
2018-01-10T18:39:51.219Z,18.60
2018-01-10T18:42:18.094Z,16.97
2018-01-10T18:44:45.679Z,23.90
2018-01-10T18:47:12.468Z,21.77
2018-01-10T18:49:39.563Z,18.50
2018-01-10T18:52:06.348Z,19.73
2018-01-10T18:54:33.168Z,18.33
2018-01-10T18:56:59.956Z,22.60
2018-01-10T18:59:26.776Z,23.43
2018-01-10T19:01:53.811Z,17.70
2018-01-10T19:04:20.769Z,19.17
2018-01-10T19:06:47.617Z,19.67
2018-01-10T19:09:14.528Z,18.37
2018-01-10T19:11:41.392Z,18.43
2018-01-10T19:14:08.185Z,20.07
2018-01-10T19:16:35.013Z,24.53
2018-01-10T19:19:01.889Z,19.90
2018-01-10T19:21:28.966Z,22.47
2018-01-10T19:23:55.950Z,25.33
2018-01-10T19:26:22.830Z,21.73
2018-01-10T19:28:49.688Z,29.00
2018-01-10T19:31:16.694Z,23.23
2018-01-10T19:33:44.129Z,32.93
2018-01-10T19:36:11.112Z,25.83
2018-01-10T19:38:38.146Z,28.77
2018-01-10T19:41:05.097Z,33.60
2018-01-10T19:43:32.144Z,51.53
2018-01-10T19:45:59.262Z,44.67
2018-01-10T19:48:26.444Z,54.80
2018-01-10T19:50:53.300Z,55.73
2018-01-10T19:53:20.143Z,52.47
2018-01-10T19:55:47.083Z,55.53
2018-01-10T19:58:13.860Z,52.57
2018-01-10T20:00:40.686Z,52.93
2018-01-10T20:03:07.483Z,52.57
2018-01-10T20:05:34.273Z,53.50
2018-01-10T20:08:01.087Z,45.73
2018-01-10T20:10:27.935Z,40.00
2018-01-10T20:12:54.724Z,40.40
2018-01-10T20:15:22.407Z,42.27
2018-01-10T20:17:50.156Z,34.37
2018-01-10T20:20:17.025Z,37.47
2018-01-10T20:22:43.996Z,39.10
2018-01-10T20:25:10.967Z,39.67
2018-01-10T20:27:39.230Z,34.33
2018-01-10T20:30:06.047Z,40.43
2018-01-10T20:32:32.856Z,41.93
2018-01-10T20:34:59.675Z,38.57
2018-01-10T20:37:27.090Z,37.50
2018-01-10T20:39:53.898Z,37.43
2018-01-10T20:42:20.733Z,40.17
2018-01-10T20:44:47.549Z,38.30
2018-01-10T20:47:14.336Z,38.33
2018-01-10T20:49:41.175Z,39.53
2018-01-10T20:52:08.332Z,41.23
2018-01-10T20:54:35.159Z,43.57
2018-01-10T20:57:01.977Z,43.37
2018-01-10T20:59:28.757Z,45.23
2018-01-10T21:01:55.562Z,41.97
2018-01-10T21:04:22.926Z,43.10
2018-01-10T21:06:49.969Z,56.70
2018-01-10T21:09:18.118Z,67.73
2018-01-10T21:11:45.214Z,45.83
2018-01-10T21:14:12.105Z,44.07
2018-01-10T21:16:38.942Z,43.07
2018-01-10T21:19:05.753Z,40.10
2018-01-10T21:21:32.582Z,36.53
2018-01-10T21:23:59.410Z,45.20
2018-01-10T21:26:26.651Z,41.60
2018-01-10T21:28:53.598Z,38.93
2018-01-10T21:31:20.424Z,42.80
2018-01-10T21:33:47.366Z,43.43
2018-01-10T21:36:14.198Z,49.40
2018-01-10T21:38:41.698Z,37.70
2018-01-10T21:41:08.642Z,48.90
2018-01-10T21:43:35.490Z,53.67
2018-01-10T21:46:02.407Z,45.77
2018-01-10T21:48:29.274Z,38.67
2018-01-10T21:50:56.086Z,38.20
2018-01-10T21:53:22.900Z,35.43
2018-01-10T21:55:49.718Z,37.07
2018-01-10T21:58:16.550Z,29.47
2018-01-10T22:00:46.835Z,29.97
2018-01-10T22:03:13.954Z,30.73
2018-01-10T22:05:42.776Z,28.40
2018-01-10T22:08:09.722Z,35.87
2018-01-10T22:10:36.722Z,30.33
2018-01-10T22:13:03.751Z,31.10
2018-01-10T22:15:30.585Z,34.40
2018-01-10T22:17:57.466Z,38.63
2018-01-10T22:20:24.245Z,37.20
2018-01-10T22:22:51.377Z,36.87
2018-01-10T22:25:18.256Z,40.10
2018-01-10T22:27:46.150Z,45.63
2018-01-10T22:30:13.708Z,39.07
2018-01-10T22:32:40.530Z,45.83
2018-01-10T22:35:07.313Z,42.53
2018-01-10T22:37:34.306Z,45.20
2018-01-10T22:40:01.180Z,41.20
2018-01-10T22:42:28.145Z,38.33
2018-01-10T22:44:54.961Z,42.97
2018-01-10T22:47:21.872Z,42.87
2018-01-10T22:49:49.432Z,43.97
2018-01-10T22:52:16.481Z,41.10
2018-01-10T22:54:43.383Z,42.93
2018-01-10T22:57:10.270Z,44.83
2018-01-10T22:59:40.210Z,49.60
2018-01-10T23:02:08.316Z,49.57
2018-01-10T23:04:35.135Z,49.80
2018-01-10T23:07:02.061Z,45.23
2018-01-10T23:09:29.271Z,50.60
2018-01-10T23:11:56.064Z,53.13
2018-01-10T23:14:23.536Z,46.90
2018-01-10T23:16:50.903Z,56.57
2018-01-10T23:19:17.958Z,103.60
2018-01-10T23:21:44.769Z,218.87
2018-01-10T23:24:12.781Z,95.53
2018-01-10T23:26:39.990Z,74.17
2018-01-10T23:29:07.004Z,72.53
2018-01-10T23:31:33.844Z,59.13
2018-01-10T23:34:00.657Z,52.37
2018-01-10T23:36:27.463Z,43.43
2018-01-10T23:38:54.300Z,43.03
2018-01-10T23:41:21.086Z,56.83
2018-01-10T23:43:47.822Z,54.80
2018-01-10T23:46:14.628Z,43.93
2018-01-10T23:48:41.468Z,45.63
2018-01-10T23:51:08.300Z,40.33
2018-01-10T23:53:35.194Z,42.73
2018-01-10T23:56:02.010Z,44.83
2018-01-10T23:58:28.932Z,39.73
